sensor_id;sensor_type;location;lat;lon;timestamp;P1;durP1;ratioP1;P2;durP2;ratioP2
10041;SDS011;5061;49.068;12.058;2023-01-09T00:01:00;12.70;;;7.53;;
10041;SDS011;5061;49.068;12.058;2023-01-09T00:04:30;12.87;;;7.10;;
10041;SDS011;5061;49.068;12.058;2023-01-09T00:07:51;13.00;;;8.17;;
10041;SDS011;5061;49.068;12.058;2023-01-09T00:11:11;13.53;;;7.50;;
10041;SDS011;5061;49.068;12.058;2023-01-09T00:14:32;11.57;;;6.00;;
10041;SDS011;5061;49.068;12.058;2023-01-09T00:17:53;11.90;;;7.27;;
10041;SDS011;5061;49.068;12.058;2023-01-09T00:21:14;10.80;;;6.73;;
10041;SDS011;5061;49.068;12.058;2023-01-09T00:24:35;16.00;;;8.20;;
10041;SDS011;5061;49.068;12.058;2023-01-09T00:27:56;13.30;;;7.57;;
10041;SDS011;5061;49.068;12.058;2023-01-09T00:31:17;10.10;;;6.80;;
10041;SDS011;5061;49.068;12.058;2023-01-09T00:34:38;11.50;;;6.60;;
10041;SDS011;5061;49.068;12.058;2023-01-09T00:37:58;8.87;;;5.60;;
10041;SDS011;5061;49.068;12.058;2023-01-09T00:41:22;8.60;;;5.50;;
10041;SDS011;5061;49.068;12.058;2023-01-09T00:44:48;8.83;;;5.50;;
10041;SDS011;5061;49.068;12.058;2023-01-09T00:48:16;11.23;;;5.97;;
10041;SDS011;5061;49.068;12.058;2023-01-09T00:51:45;8.00;;;4.67;;
10041;SDS011;5061;49.068;12.058;2023-01-09T00:55:07;10.10;;;6.87;;
10041;SDS011;5061;49.068;12.058;2023-01-09T00:58:28;11.27;;;6.30;;
10041;SDS011;5061;49.068;12.058;2023-01-09T01:01:50;9.80;;;5.70;;
10041;SDS011;5061;49.068;12.058;2023-01-09T01:05:19;10.37;;;5.80;;
10041;SDS011;5061;49.068;12.058;2023-01-09T01:12:48;6.37;;;4.17;;
10041;SDS011;5061;49.068;12.058;2023-01-09T01:16:12;13.63;;;7.07;;
10041;SDS011;5061;49.068;12.058;2023-01-09T01:19:36;9.33;;;6.00;;
10041;SDS011;5061;49.068;12.058;2023-01-09T01:23:07;12.70;;;6.70;;
10041;SDS011;5061;49.068;12.058;2023-01-09T01:26:28;9.60;;;6.00;;
10041;SDS011;5061;49.068;12.058;2023-01-09T01:29:49;9.87;;;5.80;;
10041;SDS011;5061;49.068;12.058;2023-01-09T01:33:09;10.83;;;6.60;;
10041;SDS011;5061;49.068;12.058;2023-01-09T01:36:30;12.50;;;7.50;;
10041;SDS011;5061;49.068;12.058;2023-01-09T01:39:52;10.50;;;6.47;;
10041;SDS011;5061;49.068;12.058;2023-01-09T01:43:13;11.53;;;6.37;;
10041;SDS011;5061;49.068;12.058;2023-01-09T01:46:34;12.23;;;6.87;;
10041;SDS011;5061;49.068;12.058;2023-01-09T01:49:55;10.80;;;6.43;;
10041;SDS011;5061;49.068;12.058;2023-01-09T01:53:17;11.40;;;7.47;;
10041;SDS011;5061;49.068;12.058;2023-01-09T01:56:43;12.40;;;7.50;;
10041;SDS011;5061;49.068;12.058;2023-01-09T02:00:08;13.93;;;7.63;;
10041;SDS011;5061;49.068;12.058;2023-01-09T02:03:31;11.27;;;6.90;;
10041;SDS011;5061;49.068;12.058;2023-01-09T02:06:53;11.40;;;6.57;;
10041;SDS011;5061;49.068;12.058;2023-01-09T02:10:15;9.83;;;6.30;;
10041;SDS011;5061;49.068;12.058;2023-01-09T02:13:36;8.87;;;5.50;;
10041;SDS011;5061;49.068;12.058;2023-01-09T02:17:03;9.20;;;5.23;;
10041;SDS011;5061;49.068;12.058;2023-01-09T02:31:50;15.53;;;9.47;;
10041;SDS011;5061;49.068;12.058;2023-01-09T02:38:47;13.97;;;8.27;;
10041;SDS011;5061;49.068;12.058;2023-01-09T02:45:41;13.67;;;9.13;;
10041;SDS011;5061;49.068;12.058;2023-01-09T02:49:02;16.57;;;9.37;;
10041;SDS011;5061;49.068;12.058;2023-01-09T03:09:57;13.80;;;8.00;;
10041;SDS011;5061;49.068;12.058;2023-01-09T03:13:33;12.73;;;7.17;;
10041;SDS011;5061;49.068;12.058;2023-01-09T03:17:38;11.70;;;7.50;;
10041;SDS011;5061;49.068;12.058;2023-01-09T03:20:59;12.73;;;7.93;;
10041;SDS011;5061;49.068;12.058;2023-01-09T03:24:21;10.80;;;6.90;;
10041;SDS011;5061;49.068;12.058;2023-01-09T03:27:42;13.40;;;7.83;;
10041;SDS011;5061;49.068;12.058;2023-01-09T03:31:03;12.77;;;8.50;;
10041;SDS011;5061;49.068;12.058;2023-01-09T03:34:24;15.67;;;9.40;;
10041;SDS011;5061;49.068;12.058;2023-01-09T03:37:44;18.67;;;10.40;;
10041;SDS011;5061;49.068;12.058;2023-01-09T03:41:05;19.20;;;10.10;;
10041;SDS011;5061;49.068;12.058;2023-01-09T03:44:26;19.37;;;10.70;;
10041;SDS011;5061;49.068;12.058;2023-01-09T03:47:47;17.13;;;10.37;;
10041;SDS011;5061;49.068;12.058;2023-01-09T03:51:07;19.40;;;10.87;;
10041;SDS011;5061;49.068;12.058;2023-01-09T03:54:28;19.80;;;10.57;;
10041;SDS011;5061;49.068;12.058;2023-01-09T03:57:49;19.17;;;10.70;;
10041;SDS011;5061;49.068;12.058;2023-01-09T04:01:11;22.60;;;11.43;;
10041;SDS011;5061;49.068;12.058;2023-01-09T04:04:32;19.63;;;11.60;;
10041;SDS011;5061;49.068;12.058;2023-01-09T04:07:53;16.73;;;10.33;;
10041;SDS011;5061;49.068;12.058;2023-01-09T04:11:13;16.07;;;9.63;;
10041;SDS011;5061;49.068;12.058;2023-01-09T04:14:36;14.90;;;9.83;;
10041;SDS011;5061;49.068;12.058;2023-01-09T04:17:57;19.97;;;11.53;;
10041;SDS011;5061;49.068;12.058;2023-01-09T04:21:17;21.03;;;11.97;;
10041;SDS011;5061;49.068;12.058;2023-01-09T04:24:38;20.23;;;11.10;;
10041;SDS011;5061;49.068;12.058;2023-01-09T04:27:59;22.13;;;11.73;;
10041;SDS011;5061;49.068;12.058;2023-01-09T04:31:19;20.37;;;11.57;;
10041;SDS011;5061;49.068;12.058;2023-01-09T04:34:40;17.73;;;10.33;;
10041;SDS011;5061;49.068;12.058;2023-01-09T04:38:01;20.90;;;11.97;;
10041;SDS011;5061;49.068;12.058;2023-01-09T04:41:21;20.30;;;11.17;;
10041;SDS011;5061;49.068;12.058;2023-01-09T04:45:00;19.13;;;10.50;;
10041;SDS011;5061;49.068;12.058;2023-01-09T04:48:21;22.13;;;12.60;;
10041;SDS011;5061;49.068;12.058;2023-01-09T04:51:42;20.30;;;10.70;;
10041;SDS011;5061;49.068;12.058;2023-01-09T04:55:03;25.57;;;12.80;;
10041;SDS011;5061;49.068;12.058;2023-01-09T04:58:24;20.50;;;12.50;;
10041;SDS011;5061;49.068;12.058;2023-01-09T05:01:44;25.00;;;12.50;;
10041;SDS011;5061;49.068;12.058;2023-01-09T05:05:05;19.47;;;12.30;;
10041;SDS011;5061;49.068;12.058;2023-01-09T05:08:27;21.00;;;12.13;;
10041;SDS011;5061;49.068;12.058;2023-01-09T05:11:51;19.47;;;11.67;;
10041;SDS011;5061;49.068;12.058;2023-01-09T05:15:14;23.67;;;12.70;;
10041;SDS011;5061;49.068;12.058;2023-01-09T05:18:35;18.13;;;11.43;;
10041;SDS011;5061;49.068;12.058;2023-01-09T05:21:55;19.90;;;12.30;;
10041;SDS011;5061;49.068;12.058;2023-01-09T05:25:16;20.50;;;10.70;;
10041;SDS011;5061;49.068;12.058;2023-01-09T05:28:37;19.97;;;10.60;;
10041;SDS011;5061;49.068;12.058;2023-01-09T05:31:58;16.33;;;9.00;;
10041;SDS011;5061;49.068;12.058;2023-01-09T05:35:18;19.30;;;10.70;;
10041;SDS011;5061;49.068;12.058;2023-01-09T05:38:39;18.00;;;10.40;;
10041;SDS011;5061;49.068;12.058;2023-01-09T05:42:00;17.87;;;10.00;;
10041;SDS011;5061;49.068;12.058;2023-01-09T05:45:21;19.67;;;11.20;;
10041;SDS011;5061;49.068;12.058;2023-01-09T05:48:42;18.73;;;10.40;;
10041;SDS011;5061;49.068;12.058;2023-01-09T05:52:04;19.97;;;11.73;;
10041;SDS011;5061;49.068;12.058;2023-01-09T05:55:27;18.30;;;10.83;;
10041;SDS011;5061;49.068;12.058;2023-01-09T05:58:48;19.47;;;11.07;;
10041;SDS011;5061;49.068;12.058;2023-01-09T06:02:10;17.60;;;10.47;;
10041;SDS011;5061;49.068;12.058;2023-01-09T06:05:32;19.93;;;10.70;;
10041;SDS011;5061;49.068;12.058;2023-01-09T06:08:52;17.60;;;10.73;;
10041;SDS011;5061;49.068;12.058;2023-01-09T06:12:14;15.93;;;9.47;;
10041;SDS011;5061;49.068;12.058;2023-01-09T06:15:35;15.70;;;9.37;;
10041;SDS011;5061;49.068;12.058;2023-01-09T06:18:56;13.27;;;7.93;;
10041;SDS011;5061;49.068;12.058;2023-01-09T06:22:17;15.30;;;8.60;;
10041;SDS011;5061;49.068;12.058;2023-01-09T06:25:37;14.53;;;7.50;;
10041;SDS011;5061;49.068;12.058;2023-01-09T06:28:58;14.80;;;8.13;;
10041;SDS011;5061;49.068;12.058;2023-01-09T06:32:20;12.23;;;7.23;;
10041;SDS011;5061;49.068;12.058;2023-01-09T06:35:41;12.73;;;7.63;;
10041;SDS011;5061;49.068;12.058;2023-01-09T06:39:02;11.47;;;7.00;;
10041;SDS011;5061;49.068;12.058;2023-01-09T06:42:23;12.00;;;6.83;;
10041;SDS011;5061;49.068;12.058;2023-01-09T06:45:43;12.77;;;8.37;;
10041;SDS011;5061;49.068;12.058;2023-01-09T06:49:07;13.30;;;8.10;;
10041;SDS011;5061;49.068;12.058;2023-01-09T06:52:28;11.80;;;7.57;;
10041;SDS011;5061;49.068;12.058;2023-01-09T06:55:49;12.00;;;8.47;;
10041;SDS011;5061;49.068;12.058;2023-01-09T06:59:10;15.20;;;9.30;;
10041;SDS011;5061;49.068;12.058;2023-01-09T07:02:31;18.83;;;10.73;;
10041;SDS011;5061;49.068;12.058;2023-01-09T07:05:51;16.60;;;9.23;;
10041;SDS011;5061;49.068;12.058;2023-01-09T07:09:12;17.27;;;10.10;;
10041;SDS011;5061;49.068;12.058;2023-01-09T07:12:33;18.30;;;10.40;;
10041;SDS011;5061;49.068;12.058;2023-01-09T07:15:53;18.10;;;9.90;;
10041;SDS011;5061;49.068;12.058;2023-01-09T07:19:14;15.77;;;8.67;;
10041;SDS011;5061;49.068;12.058;2023-01-09T07:22:35;19.93;;;9.90;;
10041;SDS011;5061;49.068;12.058;2023-01-09T07:25:56;21.20;;;9.53;;
10041;SDS011;5061;49.068;12.058;2023-01-09T07:29:17;22.43;;;10.97;;
10041;SDS011;5061;49.068;12.058;2023-01-09T07:32:38;18.80;;;9.70;;
10041;SDS011;5061;49.068;12.058;2023-01-09T07:36:00;14.40;;;8.90;;
10041;SDS011;5061;49.068;12.058;2023-01-09T07:39:20;13.27;;;8.00;;
10041;SDS011;5061;49.068;12.058;2023-01-09T07:42:41;14.40;;;9.00;;
10041;SDS011;5061;49.068;12.058;2023-01-09T07:46:02;13.70;;;8.77;;
10041;SDS011;5061;49.068;12.058;2023-01-09T07:49:22;13.57;;;7.87;;
10041;SDS011;5061;49.068;12.058;2023-01-09T07:52:44;10.80;;;7.77;;
10041;SDS011;5061;49.068;12.058;2023-01-09T07:56:05;14.60;;;9.10;;
10041;SDS011;5061;49.068;12.058;2023-01-09T07:59:26;10.23;;;7.00;;
10041;SDS011;5061;49.068;12.058;2023-01-09T08:02:51;13.17;;;7.60;;
10041;SDS011;5061;49.068;12.058;2023-01-09T08:06:12;9.47;;;6.87;;
10041;SDS011;5061;49.068;12.058;2023-01-09T08:09:33;8.90;;;5.30;;
10041;SDS011;5061;49.068;12.058;2023-01-09T08:12:54;6.30;;;4.47;;
10041;SDS011;5061;49.068;12.058;2023-01-09T08:16:15;7.10;;;4.40;;
10041;SDS011;5061;49.068;12.058;2023-01-09T08:19:35;2.53;;;2.33;;
10041;SDS011;5061;49.068;12.058;2023-01-09T08:22:56;1.83;;;1.60;;
10041;SDS011;5061;49.068;12.058;2023-01-09T08:30:42;1.90;;;1.37;;
10041;SDS011;5061;49.068;12.058;2023-01-09T08:34:03;1.30;;;1.20;;
10041;SDS011;5061;49.068;12.058;2023-01-09T08:37:23;1.10;;;0.90;;
10041;SDS011;5061;49.068;12.058;2023-01-09T08:40:45;5.63;;;1.53;;
10041;SDS011;5061;49.068;12.058;2023-01-09T08:44:06;1.20;;;0.90;;
10041;SDS011;5061;49.068;12.058;2023-01-09T08:47:45;2.40;;;1.30;;
10041;SDS011;5061;49.068;12.058;2023-01-09T08:51:06;1.00;;;0.80;;
10041;SDS011;5061;49.068;12.058;2023-01-09T08:54:26;1.20;;;1.00;;
10041;SDS011;5061;49.068;12.058;2023-01-09T08:57:50;2.83;;;1.03;;
10041;SDS011;5061;49.068;12.058;2023-01-09T09:01:12;1.47;;;1.03;;
10041;SDS011;5061;49.068;12.058;2023-01-09T09:04:32;3.00;;;0.90;;
10041;SDS011;5061;49.068;12.058;2023-01-09T09:07:53;1.00;;;0.87;;
10041;SDS011;5061;49.068;12.058;2023-01-09T09:11:14;1.97;;;1.40;;
10041;SDS011;5061;49.068;12.058;2023-01-09T09:14:35;0.97;;;0.87;;
10041;SDS011;5061;49.068;12.058;2023-01-09T09:18:14;3.03;;;0.90;;
10041;SDS011;5061;49.068;12.058;2023-01-09T09:21:34;1.00;;;0.90;;
10041;SDS011;5061;49.068;12.058;2023-01-09T09:24:55;8.53;;;0.93;;
10041;SDS011;5061;49.068;12.058;2023-01-09T09:28:16;2.40;;;1.07;;
10041;SDS011;5061;49.068;12.058;2023-01-09T09:31:36;1.10;;;1.00;;
10041;SDS011;5061;49.068;12.058;2023-01-09T09:34:57;2.00;;;1.00;;
10041;SDS011;5061;49.068;12.058;2023-01-09T09:38:18;2.80;;;1.00;;
10041;SDS011;5061;49.068;12.058;2023-01-09T09:45:51;1.87;;;1.23;;
10041;SDS011;5061;49.068;12.058;2023-01-09T09:49:27;2.43;;;1.00;;
10041;SDS011;5061;49.068;12.058;2023-01-09T09:53:02;1.43;;;1.20;;
10041;SDS011;5061;49.068;12.058;2023-01-09T09:56:56;3.90;;;1.20;;
10041;SDS011;5061;49.068;12.058;2023-01-09T10:00:21;1.93;;;1.60;;
10041;SDS011;5061;49.068;12.058;2023-01-09T10:07:07;2.40;;;1.20;;
10041;SDS011;5061;49.068;12.058;2023-01-09T10:10:41;1.70;;;1.00;;
10041;SDS011;5061;49.068;12.058;2023-01-09T10:14:11;1.97;;;1.03;;
10041;SDS011;5061;49.068;12.058;2023-01-09T10:17:54;0.70;;;0.70;;
10041;SDS011;5061;49.068;12.058;2023-01-09T10:21:39;2.77;;;0.97;;
10041;SDS011;5061;49.068;12.058;2023-01-09T10:25:06;1.67;;;0.90;;
10041;SDS011;5061;49.068;12.058;2023-01-09T10:32:25;2.80;;;0.87;;
10041;SDS011;5061;49.068;12.058;2023-01-09T10:39:57;2.27;;;1.23;;
10041;SDS011;5061;49.068;12.058;2023-01-09T10:43:44;1.30;;;1.00;;
10041;SDS011;5061;49.068;12.058;2023-01-09T10:47:19;3.23;;;1.00;;
10041;SDS011;5061;49.068;12.058;2023-01-09T10:50:44;1.57;;;0.93;;
10041;SDS011;5061;49.068;12.058;2023-01-09T10:54:12;3.10;;;1.10;;
10041;SDS011;5061;49.068;12.058;2023-01-09T11:00:58;1.40;;;1.00;;
10041;SDS011;5061;49.068;12.058;2023-01-09T11:04:25;2.13;;;1.13;;
10041;SDS011;5061;49.068;12.058;2023-01-09T11:07:50;1.90;;;1.13;;
10041;SDS011;5061;49.068;12.058;2023-01-09T11:11:35;3.57;;;0.97;;
10041;SDS011;5061;49.068;12.058;2023-01-09T11:18:39;1.50;;;0.90;;
10041;SDS011;5061;49.068;12.058;2023-01-09T11:22:13;0.93;;;0.77;;
10041;SDS011;5061;49.068;12.058;2023-01-09T11:25:35;1.10;;;0.80;;
10041;SDS011;5061;49.068;12.058;2023-01-09T11:29:12;1.03;;;0.90;;
10041;SDS011;5061;49.068;12.058;2023-01-09T11:32:33;0.90;;;0.87;;
10041;SDS011;5061;49.068;12.058;2023-01-09T11:36:09;1.93;;;0.80;;
10041;SDS011;5061;49.068;12.058;2023-01-09T11:39:34;1.57;;;0.80;;
10041;SDS011;5061;49.068;12.058;2023-01-09T11:43:19;0.80;;;0.70;;
10041;SDS011;5061;49.068;12.058;2023-01-09T11:46:57;4.67;;;0.77;;
10041;SDS011;5061;49.068;12.058;2023-01-09T11:50:20;4.63;;;0.90;;
10041;SDS011;5061;49.068;12.058;2023-01-09T11:57:31;1.90;;;0.80;;
10041;SDS011;5061;49.068;12.058;2023-01-09T12:01:02;6.53;;;1.13;;
10041;SDS011;5061;49.068;12.058;2023-01-09T12:22:18;2.10;;;1.03;;
10041;SDS011;5061;49.068;12.058;2023-01-09T12:40:40;3.87;;;1.10;;
10041;SDS011;5061;49.068;12.058;2023-01-09T12:48:02;2.97;;;0.90;;
10041;SDS011;5061;49.068;12.058;2023-01-09T12:51:55;2.07;;;1.40;;
10041;SDS011;5061;49.068;12.058;2023-01-09T12:55:32;2.20;;;1.30;;
10041;SDS011;5061;49.068;12.058;2023-01-09T13:02:41;1.30;;;1.03;;
10041;SDS011;5061;49.068;12.058;2023-01-09T13:06:12;2.30;;;0.90;;
10041;SDS011;5061;49.068;12.058;2023-01-09T13:09:40;1.30;;;0.90;;
10041;SDS011;5061;49.068;12.058;2023-01-09T13:13:04;3.10;;;0.93;;
10041;SDS011;5061;49.068;12.058;2023-01-09T13:16:36;1.30;;;0.87;;
10041;SDS011;5061;49.068;12.058;2023-01-09T13:23:41;4.17;;;1.13;;
10041;SDS011;5061;49.068;12.058;2023-01-09T13:27:14;1.00;;;0.90;;
10041;SDS011;5061;49.068;12.058;2023-01-09T13:31:23;1.50;;;0.93;;
10041;SDS011;5061;49.068;12.058;2023-01-09T13:34:28;2.30;;;1.20;;
10041;SDS011;5061;49.068;12.058;2023-01-09T13:37:51;0.90;;;0.80;;
10041;SDS011;5061;49.068;12.058;2023-01-09T13:41:13;1.47;;;0.83;;
10041;SDS011;5061;49.068;12.058;2023-01-09T13:44:54;2.50;;;1.03;;
10041;SDS011;5061;49.068;12.058;2023-01-09T13:48:28;2.90;;;1.17;;
10041;SDS011;5061;49.068;12.058;2023-01-09T13:55:25;1.67;;;0.80;;
10041;SDS011;5061;49.068;12.058;2023-01-09T14:09:21;1.67;;;1.00;;
10041;SDS011;5061;49.068;12.058;2023-01-09T14:12:42;1.43;;;1.10;;
10041;SDS011;5061;49.068;12.058;2023-01-09T14:16:04;2.03;;;0.90;;
10041;SDS011;5061;49.068;12.058;2023-01-09T14:19:46;2.40;;;1.10;;
10041;SDS011;5061;49.068;12.058;2023-01-09T14:23:21;2.57;;;1.10;;
10041;SDS011;5061;49.068;12.058;2023-01-09T14:26:45;1.57;;;0.90;;
10041;SDS011;5061;49.068;12.058;2023-01-09T14:33:46;1.40;;;0.83;;
10041;SDS011;5061;49.068;12.058;2023-01-09T14:37:07;5.20;;;1.07;;
10041;SDS011;5061;49.068;12.058;2023-01-09T14:40:32;3.20;;;1.20;;
10041;SDS011;5061;49.068;12.058;2023-01-09T14:50:58;1.27;;;0.90;;
10041;SDS011;5061;49.068;12.058;2023-01-09T14:54:30;1.63;;;1.00;;
10041;SDS011;5061;49.068;12.058;2023-01-09T14:57:55;1.63;;;1.17;;
10041;SDS011;5061;49.068;12.058;2023-01-09T15:01:28;0.80;;;0.80;;
10041;SDS011;5061;49.068;12.058;2023-01-09T15:04:51;2.13;;;1.00;;
10041;SDS011;5061;49.068;12.058;2023-01-09T15:08:16;1.20;;;1.00;;
10041;SDS011;5061;49.068;12.058;2023-01-09T15:11:42;2.23;;;0.97;;
10041;SDS011;5061;49.068;12.058;2023-01-09T15:15:03;1.83;;;0.93;;
10041;SDS011;5061;49.068;12.058;2023-01-09T15:18:28;3.70;;;1.30;;
10041;SDS011;5061;49.068;12.058;2023-01-09T15:21:54;1.53;;;1.00;;
10041;SDS011;5061;49.068;12.058;2023-01-09T15:29:03;2.40;;;1.23;;
10041;SDS011;5061;49.068;12.058;2023-01-09T15:32:37;1.00;;;0.90;;
10041;SDS011;5061;49.068;12.058;2023-01-09T15:35:59;1.20;;;1.10;;
10041;SDS011;5061;49.068;12.058;2023-01-09T15:39:28;1.37;;;0.83;;
10041;SDS011;5061;49.068;12.058;2023-01-09T15:42:52;1.47;;;1.03;;
10041;SDS011;5061;49.068;12.058;2023-01-09T15:46:14;2.50;;;1.20;;
10041;SDS011;5061;49.068;12.058;2023-01-09T15:49:35;1.07;;;0.87;;
10041;SDS011;5061;49.068;12.058;2023-01-09T15:52:56;3.43;;;0.90;;
10041;SDS011;5061;49.068;12.058;2023-01-09T15:56:19;2.47;;;1.03;;
10041;SDS011;5061;49.068;12.058;2023-01-09T15:59:42;2.40;;;1.03;;
10041;SDS011;5061;49.068;12.058;2023-01-09T16:03:07;2.50;;;1.13;;
10041;SDS011;5061;49.068;12.058;2023-01-09T16:06:36;1.37;;;0.97;;
10041;SDS011;5061;49.068;12.058;2023-01-09T16:10:17;1.00;;;0.90;;
10041;SDS011;5061;49.068;12.058;2023-01-09T16:14:10;1.80;;;1.00;;
10041;SDS011;5061;49.068;12.058;2023-01-09T16:18:02;1.70;;;0.90;;
10041;SDS011;5061;49.068;12.058;2023-01-09T16:21:41;1.90;;;1.30;;
10041;SDS011;5061;49.068;12.058;2023-01-09T16:25:17;1.30;;;1.10;;
10041;SDS011;5061;49.068;12.058;2023-01-09T16:28:43;1.40;;;1.30;;
10041;SDS011;5061;49.068;12.058;2023-01-09T16:32:05;1.50;;;1.30;;
10041;SDS011;5061;49.068;12.058;2023-01-09T16:35:25;2.43;;;1.73;;
10041;SDS011;5061;49.068;12.058;2023-01-09T16:38:46;2.07;;;1.53;;
10041;SDS011;5061;49.068;12.058;2023-01-09T16:42:07;1.20;;;0.90;;
10041;SDS011;5061;49.068;12.058;2023-01-09T16:45:46;2.10;;;1.30;;
10041;SDS011;5061;49.068;12.058;2023-01-09T16:49:25;1.83;;;1.33;;
10041;SDS011;5061;49.068;12.058;2023-01-09T16:52:47;2.27;;;1.37;;
10041;SDS011;5061;49.068;12.058;2023-01-09T16:56:21;2.30;;;1.70;;
10041;SDS011;5061;49.068;12.058;2023-01-09T16:59:44;2.10;;;1.80;;
10041;SDS011;5061;49.068;12.058;2023-01-09T17:03:05;3.00;;;1.90;;
10041;SDS011;5061;49.068;12.058;2023-01-09T17:06:28;3.27;;;1.87;;
10041;SDS011;5061;49.068;12.058;2023-01-09T17:09:52;2.23;;;1.60;;
10041;SDS011;5061;49.068;12.058;2023-01-09T17:13:13;3.50;;;2.87;;
10041;SDS011;5061;49.068;12.058;2023-01-09T17:16:34;2.73;;;1.70;;
10041;SDS011;5061;49.068;12.058;2023-01-09T17:19:55;5.33;;;1.93;;
10041;SDS011;5061;49.068;12.058;2023-01-09T17:23:16;5.47;;;2.00;;
10041;SDS011;5061;49.068;12.058;2023-01-09T17:26:40;2.67;;;1.37;;
10041;SDS011;5061;49.068;12.058;2023-01-09T17:30:26;1.33;;;1.00;;
10041;SDS011;5061;49.068;12.058;2023-01-09T17:33:47;2.23;;;1.20;;
10041;SDS011;5061;49.068;12.058;2023-01-09T17:37:17;1.10;;;1.00;;
10041;SDS011;5061;49.068;12.058;2023-01-09T17:40:38;4.40;;;1.20;;
10041;SDS011;5061;49.068;12.058;2023-01-09T17:43:59;1.87;;;1.17;;
10041;SDS011;5061;49.068;12.058;2023-01-09T17:47:19;3.87;;;1.30;;
10041;SDS011;5061;49.068;12.058;2023-01-09T17:50:40;1.80;;;1.50;;
10041;SDS011;5061;49.068;12.058;2023-01-09T17:54:01;1.80;;;1.50;;
10041;SDS011;5061;49.068;12.058;2023-01-09T17:57:21;1.20;;;1.07;;
10041;SDS011;5061;49.068;12.058;2023-01-09T18:00:42;2.67;;;1.20;;
10041;SDS011;5061;49.068;12.058;2023-01-09T18:04:02;1.30;;;1.10;;
10041;SDS011;5061;49.068;12.058;2023-01-09T18:07:23;1.57;;;1.20;;
10041;SDS011;5061;49.068;12.058;2023-01-09T18:10:44;1.03;;;0.93;;
10041;SDS011;5061;49.068;12.058;2023-01-09T18:14:07;1.33;;;1.00;;
10041;SDS011;5061;49.068;12.058;2023-01-09T18:17:28;1.20;;;1.10;;
10041;SDS011;5061;49.068;12.058;2023-01-09T18:20:48;2.17;;;1.30;;
10041;SDS011;5061;49.068;12.058;2023-01-09T18:24:09;1.47;;;1.37;;
10041;SDS011;5061;49.068;12.058;2023-01-09T18:27:30;1.60;;;1.43;;
10041;SDS011;5061;49.068;12.058;2023-01-09T18:30:51;2.90;;;1.73;;
10041;SDS011;5061;49.068;12.058;2023-01-09T18:34:12;4.83;;;1.90;;
10041;SDS011;5061;49.068;12.058;2023-01-09T18:37:34;3.23;;;1.60;;
10041;SDS011;5061;49.068;12.058;2023-01-09T18:41:01;6.60;;;1.60;;
10041;SDS011;5061;49.068;12.058;2023-01-09T18:44:23;4.30;;;1.60;;
10041;SDS011;5061;49.068;12.058;2023-01-09T18:47:44;2.40;;;1.60;;
10041;SDS011;5061;49.068;12.058;2023-01-09T18:51:05;3.87;;;2.20;;
10041;SDS011;5061;49.068;12.058;2023-01-09T18:54:27;2.50;;;1.73;;
10041;SDS011;5061;49.068;12.058;2023-01-09T18:57:47;2.57;;;2.10;;
10041;SDS011;5061;49.068;12.058;2023-01-09T19:01:08;1.77;;;1.13;;
10041;SDS011;5061;49.068;12.058;2023-01-09T19:04:28;2.40;;;1.80;;
10041;SDS011;5061;49.068;12.058;2023-01-09T19:07:49;1.73;;;1.40;;
10041;SDS011;5061;49.068;12.058;2023-01-09T19:11:10;3.57;;;1.83;;
10041;SDS011;5061;49.068;12.058;2023-01-09T19:14:30;1.73;;;1.43;;
10041;SDS011;5061;49.068;12.058;2023-01-09T19:17:51;2.80;;;1.40;;
10041;SDS011;5061;49.068;12.058;2023-01-09T19:21:13;2.13;;;1.50;;
10041;SDS011;5061;49.068;12.058;2023-01-09T19:24:35;6.70;;;1.70;;
10041;SDS011;5061;49.068;12.058;2023-01-09T19:27:56;1.07;;;0.90;;
10041;SDS011;5061;49.068;12.058;2023-01-09T19:31:19;1.70;;;1.30;;
10041;SDS011;5061;49.068;12.058;2023-01-09T19:34:43;1.43;;;1.17;;
10041;SDS011;5061;49.068;12.058;2023-01-09T19:38:04;1.43;;;0.90;;
10041;SDS011;5061;49.068;12.058;2023-01-09T19:41:25;1.00;;;0.80;;
10041;SDS011;5061;49.068;12.058;2023-01-09T19:44:46;2.30;;;1.03;;
10041;SDS011;5061;49.068;12.058;2023-01-09T19:48:07;1.40;;;1.30;;
10041;SDS011;5061;49.068;12.058;2023-01-09T19:51:27;2.50;;;1.00;;
10041;SDS011;5061;49.068;12.058;2023-01-09T19:54:48;1.03;;;0.87;;
10041;SDS011;5061;49.068;12.058;2023-01-09T19:58:09;1.00;;;0.90;;
10041;SDS011;5061;49.068;12.058;2023-01-09T20:01:30;1.60;;;1.30;;
10041;SDS011;5061;49.068;12.058;2023-01-09T20:04:55;2.50;;;1.40;;
10041;SDS011;5061;49.068;12.058;2023-01-09T20:08:16;1.53;;;1.27;;
10041;SDS011;5061;49.068;12.058;2023-01-09T20:11:38;2.10;;;1.30;;
10041;SDS011;5061;49.068;12.058;2023-01-09T20:15:00;1.20;;;1.10;;
10041;SDS011;5061;49.068;12.058;2023-01-09T20:18:21;1.20;;;1.00;;
10041;SDS011;5061;49.068;12.058;2023-01-09T20:21:41;1.27;;;0.97;;
10041;SDS011;5061;49.068;12.058;2023-01-09T20:25:02;1.63;;;1.00;;
10041;SDS011;5061;49.068;12.058;2023-01-09T20:28:23;0.70;;;0.70;;
10041;SDS011;5061;49.068;12.058;2023-01-09T20:31:44;1.00;;;0.87;;
10041;SDS011;5061;49.068;12.058;2023-01-09T20:35:05;1.00;;;0.90;;
10041;SDS011;5061;49.068;12.058;2023-01-09T20:38:26;2.07;;;1.17;;
10041;SDS011;5061;49.068;12.058;2023-01-09T20:41:46;1.07;;;0.97;;
10041;SDS011;5061;49.068;12.058;2023-01-09T20:45:07;1.73;;;0.97;;
10041;SDS011;5061;49.068;12.058;2023-01-09T20:48:28;0.80;;;0.80;;
10041;SDS011;5061;49.068;12.058;2023-01-09T20:51:52;1.30;;;1.20;;
10041;SDS011;5061;49.068;12.058;2023-01-09T20:55:13;1.50;;;1.03;;
10041;SDS011;5061;49.068;12.058;2023-01-09T20:58:37;1.00;;;0.80;;
10041;SDS011;5061;49.068;12.058;2023-01-09T21:02:01;3.70;;;1.33;;
10041;SDS011;5061;49.068;12.058;2023-01-09T21:05:25;1.50;;;1.10;;
10041;SDS011;5061;49.068;12.058;2023-01-09T21:08:45;4.20;;;1.37;;
10041;SDS011;5061;49.068;12.058;2023-01-09T21:12:09;1.50;;;1.10;;
10041;SDS011;5061;49.068;12.058;2023-01-09T21:16:00;2.53;;;1.50;;
10041;SDS011;5061;49.068;12.058;2023-01-09T21:19:22;1.50;;;1.40;;
10041;SDS011;5061;49.068;12.058;2023-01-09T21:22:45;1.17;;;1.07;;
10041;SDS011;5061;49.068;12.058;2023-01-09T21:26:09;2.00;;;1.20;;
10041;SDS011;5061;49.068;12.058;2023-01-09T21:29:34;1.73;;;1.10;;
10041;SDS011;5061;49.068;12.058;2023-01-09T21:32:55;1.43;;;1.33;;
10041;SDS011;5061;49.068;12.058;2023-01-09T21:36:16;1.37;;;1.10;;
10041;SDS011;5061;49.068;12.058;2023-01-09T21:39:36;2.63;;;1.20;;
10041;SDS011;5061;49.068;12.058;2023-01-09T21:42:57;1.87;;;1.10;;
10041;SDS011;5061;49.068;12.058;2023-01-09T21:46:39;1.60;;;1.50;;
10041;SDS011;5061;49.068;12.058;2023-01-09T21:50:11;1.30;;;1.20;;
10041;SDS011;5061;49.068;12.058;2023-01-09T21:53:32;2.27;;;1.20;;
10041;SDS011;5061;49.068;12.058;2023-01-09T21:56:53;1.40;;;1.30;;
10041;SDS011;5061;49.068;12.058;2023-01-09T22:00:14;2.30;;;1.53;;
10041;SDS011;5061;49.068;12.058;2023-01-09T22:03:35;2.60;;;1.50;;
10041;SDS011;5061;49.068;12.058;2023-01-09T22:06:55;2.47;;;1.53;;
10041;SDS011;5061;49.068;12.058;2023-01-09T22:10:16;1.57;;;1.47;;
10041;SDS011;5061;49.068;12.058;2023-01-09T22:13:36;1.33;;;1.20;;
10041;SDS011;5061;49.068;12.058;2023-01-09T22:16:57;6.23;;;1.10;;
10041;SDS011;5061;49.068;12.058;2023-01-09T22:20:18;1.30;;;1.20;;
10041;SDS011;5061;49.068;12.058;2023-01-09T22:23:38;3.63;;;1.50;;
10041;SDS011;5061;49.068;12.058;2023-01-09T22:26:59;3.80;;;1.53;;
10041;SDS011;5061;49.068;12.058;2023-01-09T22:30:20;1.40;;;1.30;;
10041;SDS011;5061;49.068;12.058;2023-01-09T22:33:40;4.40;;;1.90;;
10041;SDS011;5061;49.068;12.058;2023-01-09T22:37:01;1.40;;;1.30;;
10041;SDS011;5061;49.068;12.058;2023-01-09T22:40:22;1.60;;;1.40;;
10041;SDS011;5061;49.068;12.058;2023-01-09T22:43:43;3.00;;;1.53;;